createdAt,value
2019-02-26T00:00:17.155Z,16.27
2019-02-26T00:02:52.990Z,13.97
2019-02-26T00:05:28.573Z,14.20
2019-02-26T00:08:02.784Z,13.80
2019-02-26T00:10:38.907Z,14.43
2019-02-26T00:13:11.635Z,15.00
2019-02-26T00:15:45.899Z,14.40
2019-02-26T00:18:21.495Z,14.63
2019-02-26T00:20:56.831Z,14.53
2019-02-26T00:23:31.001Z,13.93
2019-02-26T00:26:04.499Z,15.17
2019-02-26T00:28:39.080Z,14.97
2019-02-26T00:31:13.297Z,15.47
2019-02-26T00:33:46.922Z,15.30
2019-02-26T00:36:20.390Z,14.90
2019-02-26T00:38:53.919Z,16.03
2019-02-26T00:41:29.139Z,15.07
2019-02-26T00:44:04.302Z,14.77
2019-02-26T00:46:39.509Z,16.87
2019-02-26T00:49:13.210Z,16.40
2019-02-26T00:51:48.265Z,15.20
2019-02-26T00:54:24.315Z,14.57
2019-02-26T00:57:01.085Z,16.87
2019-02-26T00:59:32.388Z,16.00
2019-02-26T01:02:05.923Z,16.43
2019-02-26T01:04:41.374Z,16.43
2019-02-26T01:07:14.726Z,17.90
2019-02-26T01:09:50.147Z,16.77
2019-02-26T01:12:23.409Z,16.47
2019-02-26T01:14:56.828Z,16.00
2019-02-26T01:17:31.234Z,16.40
2019-02-26T01:20:08.758Z,16.63
2019-02-26T01:22:42.903Z,18.97
2019-02-26T01:25:18.537Z,16.57
2019-02-26T01:27:53.264Z,18.57
2019-02-26T01:30:29.419Z,18.53
2019-02-26T01:33:04.993Z,18.00
2019-02-26T01:35:38.290Z,19.00
2019-02-26T01:38:12.634Z,26.83
2019-02-26T01:40:50.716Z,23.07
2019-02-26T01:43:22.708Z,23.63
2019-02-26T01:45:56.209Z,20.57
2019-02-26T01:48:30.368Z,19.00
2019-02-26T01:51:04.991Z,19.10
2019-02-26T01:53:38.453Z,16.73
2019-02-26T01:56:12.058Z,17.70
2019-02-26T01:58:45.623Z,17.77
2019-02-26T02:01:21.277Z,17.03
2019-02-26T02:03:56.163Z,16.67
2019-02-26T02:06:30.331Z,17.30
2019-02-26T02:09:09.298Z,16.33
2019-02-26T02:11:40.835Z,19.13
2019-02-26T02:14:15.391Z,16.63
2019-02-26T02:16:49.547Z,17.23
2019-02-26T02:19:25.166Z,19.60
2019-02-26T02:21:58.349Z,17.83
2019-02-26T02:24:31.983Z,17.37
2019-02-26T02:27:05.512Z,16.50
2019-02-26T02:29:41.833Z,16.67
2019-02-26T02:32:14.034Z,16.87
2019-02-26T02:34:47.503Z,15.77
2019-02-26T02:37:23.873Z,20.93
2019-02-26T02:39:56.151Z,18.70
2019-02-26T02:42:29.604Z,18.23
2019-02-26T02:45:05.165Z,17.30
2019-02-26T02:47:38.838Z,18.43
2019-02-26T02:50:15.327Z,19.47
2019-02-26T02:52:50.934Z,21.17
2019-02-26T02:55:24.341Z,20.30
2019-02-26T02:57:59.937Z,19.20
2019-02-26T03:00:34.492Z,18.30
2019-02-26T03:03:08.255Z,20.47
2019-02-26T03:05:43.828Z,18.47
2019-02-26T03:08:19.334Z,17.40
2019-02-26T03:10:52.113Z,22.10
2019-02-26T03:13:27.896Z,19.70
2019-02-26T03:16:01.649Z,19.53
2019-02-26T03:18:35.288Z,20.93
2019-02-26T03:21:08.891Z,19.83
2019-02-26T03:23:43.505Z,19.10
2019-02-26T03:26:20.331Z,22.30
2019-02-26T03:28:53.280Z,19.67
2019-02-26T03:31:31.015Z,21.30
2019-02-26T03:34:08.851Z,20.30
2019-02-26T03:36:39.949Z,20.73
2019-02-26T03:39:12.669Z,19.80
2019-02-26T03:41:48.408Z,22.27
2019-02-26T03:44:21.271Z,22.63
2019-02-26T03:46:54.781Z,20.07
2019-02-26T03:49:28.276Z,18.37
2019-02-26T03:52:01.868Z,20.17
2019-02-26T03:54:37.419Z,20.33
2019-02-26T03:57:11.448Z,20.80
2019-02-26T03:59:45.781Z,21.27
2019-02-26T04:02:23.519Z,22.53
2019-02-26T04:04:57.093Z,21.00
2019-02-26T04:07:30.362Z,21.63
2019-02-26T04:10:05.781Z,21.97
2019-02-26T04:12:42.346Z,22.57
2019-02-26T04:15:16.637Z,22.27
2019-02-26T04:17:50.131Z,20.33
2019-02-26T04:20:26.969Z,21.70
2019-02-26T04:22:58.804Z,20.93
2019-02-26T04:25:49.506Z,20.30
2019-02-26T04:28:37.127Z,21.33
2019-02-26T04:31:38.619Z,22.57
2019-02-26T04:34:26.932Z,24.17
2019-02-26T04:37:07.280Z,24.97
2019-02-26T04:40:12.056Z,26.47
2019-02-26T04:43:10.033Z,20.23
2019-02-26T04:45:48.178Z,21.23
2019-02-26T04:48:29.130Z,21.57
2019-02-26T04:51:03.377Z,20.07
2019-02-26T04:53:36.851Z,19.93
2019-02-26T04:56:12.797Z,20.17
2019-02-26T04:58:47.710Z,20.27
2019-02-26T05:01:20.639Z,20.93
2019-02-26T05:03:54.063Z,20.40
2019-02-26T05:06:27.657Z,22.30
2019-02-26T05:09:02.840Z,21.83
2019-02-26T05:11:40.412Z,22.97
2019-02-26T05:14:12.298Z,23.43
2019-02-26T05:16:46.641Z,20.17
2019-02-26T05:19:21.663Z,21.37
2019-02-26T05:21:56.769Z,22.40
2019-02-26T05:24:30.530Z,22.23
2019-02-26T05:27:15.320Z,23.10
2019-02-26T05:29:49.200Z,21.33
2019-02-26T05:32:25.034Z,20.73
2019-02-26T05:34:58.613Z,20.77
2019-02-26T05:37:34.816Z,20.23
2019-02-26T05:40:10.384Z,21.60
2019-02-26T05:42:43.109Z,19.00
2019-02-26T05:45:16.590Z,21.33
2019-02-26T05:47:51.345Z,19.50
2019-02-26T05:50:25.515Z,19.97
2019-02-26T05:53:01.807Z,20.00
2019-02-26T05:55:34.292Z,20.80
2019-02-26T05:58:09.966Z,19.17
2019-02-26T06:00:42.864Z,20.83
2019-02-26T06:03:18.519Z,17.30
2019-02-26T06:05:52.811Z,19.30
2019-02-26T06:08:30.200Z,19.30
2019-02-26T06:11:01.826Z,19.13
2019-02-26T06:13:37.691Z,19.73
2019-02-26T06:16:10.487Z,19.27
2019-02-26T06:18:46.469Z,19.93
2019-02-26T06:21:20.964Z,19.70
2019-02-26T06:23:55.161Z,18.90
2019-02-26T06:26:32.661Z,19.00
2019-02-26T06:29:03.833Z,19.63
2019-02-26T06:31:39.581Z,19.77
2019-02-26T06:34:14.335Z,19.87
2019-02-26T06:36:48.871Z,18.83
2019-02-26T06:39:24.493Z,20.10
2019-02-26T06:41:58.123Z,21.13
2019-02-26T06:44:31.727Z,18.93
2019-02-26T06:47:06.807Z,21.37
2019-02-26T06:49:41.405Z,19.70
2019-02-26T06:52:17.923Z,18.40
2019-02-26T06:54:56.918Z,18.50
2019-02-26T06:57:26.068Z,18.00
2019-02-26T07:00:01.157Z,19.90
2019-02-26T07:02:34.857Z,19.87
2019-02-26T07:05:10.902Z,20.40
2019-02-26T07:07:44.448Z,19.03
2019-02-26T07:10:21.492Z,20.37
2019-02-26T07:12:53.188Z,21.20
2019-02-26T07:15:28.813Z,19.47
2019-02-26T07:18:04.455Z,22.17
2019-02-26T07:20:39.976Z,20.80
2019-02-26T07:23:12.939Z,21.70
2019-02-26T07:25:47.542Z,22.47
2019-02-26T07:28:22.835Z,22.40
2019-02-26T07:30:56.254Z,25.37
2019-02-26T07:33:32.172Z,23.67
2019-02-26T07:36:05.004Z,24.20
2019-02-26T07:38:41.147Z,22.50
2019-02-26T07:41:13.657Z,20.30
2019-02-26T07:43:49.277Z,22.43
2019-02-26T07:46:22.599Z,21.83
2019-02-26T07:48:57.180Z,23.43
2019-02-26T07:51:33.367Z,21.93
2019-02-26T07:54:06.423Z,21.13
2019-02-26T07:56:39.965Z,20.73
2019-02-26T07:59:15.047Z,20.97
2019-02-26T08:01:49.728Z,21.20
2019-02-26T08:04:23.261Z,21.40
2019-02-26T08:06:59.059Z,23.67
2019-02-26T08:09:32.071Z,24.00
2019-02-26T08:12:07.186Z,23.33
2019-02-26T08:14:42.758Z,24.40
2019-02-26T08:17:16.092Z,24.60
2019-02-26T08:19:49.669Z,24.17
2019-02-26T08:22:24.755Z,24.87
2019-02-26T08:24:58.504Z,25.13
2019-02-26T08:27:33.873Z,23.47
2019-02-26T08:30:12.133Z,24.17
2019-02-26T08:32:48.453Z,23.63
2019-02-26T08:35:20.819Z,24.33
2019-02-26T08:37:54.436Z,26.00
2019-02-26T08:40:27.935Z,25.47
2019-02-26T08:43:01.471Z,25.20
2019-02-26T08:45:34.987Z,26.00
2019-02-26T08:48:08.476Z,26.03
2019-02-26T08:50:43.958Z,25.27
2019-02-26T08:53:17.248Z,25.43
2019-02-26T08:55:53.234Z,25.13
2019-02-26T08:58:28.145Z,24.70
2019-02-26T09:01:01.219Z,26.87
2019-02-26T09:03:40.738Z,29.37
2019-02-26T09:06:13.256Z,30.03
2019-02-26T09:08:44.920Z,29.63
2019-02-26T09:11:18.448Z,27.67
2019-02-26T09:13:51.871Z,27.93
2019-02-26T09:16:27.792Z,29.43
2019-02-26T09:19:00.564Z,30.60
2019-02-26T09:21:34.689Z,28.90
2019-02-26T09:24:09.470Z,29.40
2019-02-26T09:26:42.962Z,28.90
2019-02-26T09:29:17.385Z,31.70
2019-02-26T09:31:51.719Z,29.10
2019-02-26T09:34:26.693Z,29.67
2019-02-26T09:37:02.575Z,30.33
2019-02-26T09:39:36.477Z,28.43
2019-02-26T09:42:10.936Z,29.80
2019-02-26T09:44:44.693Z,27.60
2019-02-26T09:47:21.344Z,29.75
2019-02-26T09:49:56.177Z,27.98
2019-02-26T09:52:32.495Z,29.25
2019-02-26T09:55:14.475Z,28.00
2019-02-26T09:57:48.047Z,29.77
2019-02-26T10:00:25.428Z,27.52
2019-02-26T10:02:57.503Z,27.22
2019-02-26T10:05:31.414Z,28.40
2019-02-26T10:08:05.390Z,27.65
2019-02-26T10:10:39.796Z,26.65
2019-02-26T10:13:13.555Z,26.93
2019-02-26T10:15:46.916Z,23.22
2019-02-26T10:18:21.143Z,24.65
2019-02-26T10:20:55.527Z,25.02
2019-02-26T10:23:32.776Z,25.48
2019-02-26T10:26:05.753Z,25.72
2019-02-26T10:28:42.533Z,25.55
2019-02-26T10:31:14.650Z,24.40
2019-02-26T10:33:50.403Z,24.63
2019-02-26T10:36:23.300Z,24.90
2019-02-26T10:38:57.753Z,24.63
2019-02-26T10:41:34.238Z,23.42
2019-02-26T10:44:07.327Z,22.55
2019-02-26T10:46:42.559Z,22.60
2019-02-26T10:49:16.012Z,21.85
2019-02-26T10:51:49.395Z,22.62
2019-02-26T10:54:22.879Z,20.25
2019-02-26T10:56:57.373Z,21.05
2019-02-26T10:59:31.409Z,19.23
2019-02-26T11:02:04.865Z,19.55
2019-02-26T11:04:41.201Z,19.45
2019-02-26T11:07:14.281Z,19.45
2019-02-26T11:09:51.058Z,20.10
2019-02-26T11:12:25.191Z,19.52
2019-02-26T11:14:59.017Z,18.57
2019-02-26T11:17:33.593Z,18.92
2019-02-26T11:20:10.201Z,17.95
2019-02-26T11:22:44.795Z,17.23
2019-02-26T11:25:21.444Z,17.90
2019-02-26T11:27:54.394Z,17.45
2019-02-26T11:30:30.219Z,17.67
2019-02-26T11:33:05.892Z,18.12
2019-02-26T11:35:39.721Z,16.93
2019-02-26T11:38:14.933Z,16.37
2019-02-26T11:40:48.835Z,15.90
2019-02-26T11:43:23.913Z,15.53
2019-02-26T11:45:59.233Z,16.97
2019-02-26T11:48:33.216Z,16.85
2019-02-26T11:51:06.999Z,18.17
2019-02-26T11:53:40.482Z,18.70
2019-02-26T11:56:15.857Z,19.17
2019-02-26T11:58:49.258Z,18.48
2019-02-26T12:01:22.762Z,19.75
2019-02-26T12:04:02.516Z,20.15
2019-02-26T12:06:31.358Z,19.12
2019-02-26T12:09:08.762Z,17.75
2019-02-26T12:11:41.767Z,19.90
2019-02-26T12:14:18.409Z,17.75
2019-02-26T12:16:50.700Z,18.23
2019-02-26T12:19:25.668Z,19.45
2019-02-26T12:22:02.808Z,21.00
2019-02-26T12:24:36.181Z,20.75
2019-02-26T12:27:13.325Z,19.85
2019-02-26T12:29:48.143Z,20.70
2019-02-26T12:32:22.333Z,20.20
2019-02-26T12:34:55.727Z,19.85
2019-02-26T12:37:29.216Z,22.45
2019-02-26T12:40:02.668Z,21.37
2019-02-26T12:42:37.569Z,21.20
2019-02-26T12:45:14.477Z,21.68
2019-02-26T12:47:49.445Z,21.02
2019-02-26T12:50:28.985Z,19.70
2019-02-26T12:52:59.733Z,19.80
2019-02-26T12:55:38.209Z,20.30
2019-02-26T12:58:11.156Z,19.85
2019-02-26T13:00:45.510Z,20.23
2019-02-26T13:03:19.883Z,20.30
2019-02-26T13:05:54.144Z,21.65
2019-02-26T13:08:27.556Z,20.30
2019-02-26T13:11:01.025Z,21.82
2019-02-26T13:13:34.519Z,22.02
2019-02-26T13:16:07.974Z,21.33
2019-02-26T13:18:41.561Z,22.27
2019-02-26T13:21:17.164Z,22.98
2019-02-26T13:23:50.592Z,22.60
2019-02-26T13:26:24.160Z,22.32
2019-02-26T13:29:00.479Z,23.42
2019-02-26T13:31:36.016Z,24.67
2019-02-26T13:34:14.040Z,22.95
2019-02-26T13:36:47.542Z,24.30
2019-02-26T13:39:25.560Z,23.18
2019-02-26T13:41:58.595Z,24.63
2019-02-26T13:44:29.040Z,24.50
2019-02-26T13:47:02.421Z,24.77
2019-02-26T13:49:35.879Z,23.27
2019-02-26T13:52:09.416Z,23.73
2019-02-26T13:54:42.917Z,22.70
2019-02-26T13:57:16.559Z,23.73
2019-02-26T13:59:49.998Z,22.48
2019-02-26T14:02:23.475Z,21.17
2019-02-26T14:04:56.911Z,20.85
2019-02-26T14:07:30.363Z,21.42
2019-02-26T14:10:06.024Z,20.75
2019-02-26T14:12:39.573Z,21.93
2019-02-26T14:15:16.592Z,22.73
2019-02-26T14:17:50.096Z,22.70
2019-02-26T14:20:23.700Z,21.42
2019-02-26T14:22:57.228Z,22.60
2019-02-26T14:25:30.774Z,21.30
2019-02-26T14:28:04.395Z,21.17
2019-02-26T14:30:37.784Z,21.50
2019-02-26T14:33:11.376Z,21.77
2019-02-26T14:35:44.954Z,21.62
2019-02-26T14:38:18.414Z,21.33
2019-02-26T14:40:51.874Z,21.60
2019-02-26T14:43:25.305Z,21.82
2019-02-26T14:45:58.840Z,22.55
2019-02-26T14:48:32.324Z,21.62
2019-02-26T14:51:05.861Z,22.32
2019-02-26T14:53:39.360Z,20.30
2019-02-26T14:56:12.864Z,20.37
2019-02-26T14:58:46.417Z,20.80
2019-02-26T15:01:19.815Z,20.52
2019-02-26T15:03:53.278Z,18.92
2019-02-26T15:06:26.776Z,20.17
2019-02-26T15:09:00.211Z,19.25
2019-02-26T15:11:33.841Z,18.37
2019-02-26T15:14:07.650Z,19.17
2019-02-26T15:16:41.142Z,17.23
2019-02-26T15:19:14.525Z,16.77
2019-02-26T15:21:48.021Z,19.05
2019-02-26T15:24:21.516Z,15.65
2019-02-26T15:26:54.901Z,16.32
2019-02-26T15:29:28.458Z,19.75
2019-02-26T15:32:01.923Z,18.77
2019-02-26T15:34:35.381Z,19.15
2019-02-26T15:37:08.995Z,22.60
2019-02-26T15:39:42.433Z,23.62
2019-02-26T15:42:16.347Z,21.75
2019-02-26T15:44:49.792Z,23.05
2019-02-26T15:47:23.358Z,23.05
2019-02-26T15:49:56.942Z,22.77
2019-02-26T15:52:30.391Z,24.65
2019-02-26T15:55:04.535Z,21.90
2019-02-26T15:57:37.991Z,22.80
2019-02-26T16:00:15.385Z,21.70
2019-02-26T16:02:50.261Z,23.32
2019-02-26T16:05:35.715Z,21.25
2019-02-26T16:08:09.574Z,20.68
2019-02-26T16:10:43.276Z,19.30
2019-02-26T16:13:16.705Z,20.62
2019-02-26T16:15:50.158Z,20.57
2019-02-26T16:18:23.688Z,24.32
2019-02-26T16:20:57.153Z,20.48
2019-02-26T16:23:30.631Z,23.50
2019-02-26T16:26:05.700Z,22.10
2019-02-26T16:28:39.587Z,22.52
2019-02-26T16:31:13.156Z,21.50
2019-02-26T16:33:46.795Z,21.07
2019-02-26T16:36:21.041Z,21.20
2019-02-26T16:38:54.487Z,20.60
2019-02-26T16:41:27.885Z,21.20
2019-02-26T16:44:01.446Z,21.65
2019-02-26T16:46:35.191Z,21.10
2019-02-26T16:49:08.841Z,20.82
2019-02-26T16:51:42.304Z,20.08
2019-02-26T16:54:15.732Z,19.15
2019-02-26T16:56:49.411Z,21.42
2019-02-26T16:59:22.939Z,19.77
2019-02-26T17:01:57.006Z,18.98
2019-02-26T17:04:30.961Z,20.77
2019-02-26T17:07:04.564Z,18.27
2019-02-26T17:09:38.283Z,19.73
2019-02-26T17:12:11.866Z,18.27
2019-02-26T17:14:45.240Z,18.30
2019-02-26T17:17:18.796Z,18.60
2019-02-26T17:19:52.195Z,24.97
2019-02-26T17:22:25.659Z,19.60
2019-02-26T17:24:59.427Z,18.80
2019-02-26T17:27:33.002Z,19.03
2019-02-26T17:30:09.664Z,19.63
2019-02-26T17:32:43.440Z,20.47
2019-02-26T17:35:17.475Z,20.87
2019-02-26T17:37:51.031Z,20.20
2019-02-26T17:40:25.837Z,20.43
2019-02-26T17:42:59.411Z,19.07
2019-02-26T17:45:37.225Z,22.23
2019-02-26T17:48:13.325Z,20.13
2019-02-26T17:50:48.536Z,19.40
2019-02-26T17:53:22.113Z,20.30
2019-02-26T17:55:56.201Z,18.77
2019-02-26T17:58:30.623Z,18.50
2019-02-26T18:01:05.583Z,19.03
2019-02-26T18:03:39.155Z,19.43
2019-02-26T18:06:13.159Z,19.90
2019-02-26T18:08:48.131Z,19.20
2019-02-26T18:11:23.713Z,18.13
2019-02-26T18:13:57.781Z,18.90
2019-02-26T18:16:34.487Z,18.17
2019-02-26T18:19:12.154Z,19.57
2019-02-26T18:21:43.551Z,17.37
2019-02-26T18:24:17.501Z,17.23
2019-02-26T18:26:50.989Z,15.07
2019-02-26T18:29:25.670Z,16.53
2019-02-26T18:32:01.155Z,16.27
2019-02-26T18:34:34.558Z,15.00
2019-02-26T18:37:08.144Z,17.17
2019-02-26T18:39:41.500Z,16.47
2019-02-26T18:42:15.639Z,20.43
2019-02-26T18:44:49.043Z,19.33
2019-02-26T18:47:22.546Z,19.50
2019-02-26T18:49:56.062Z,19.17
2019-02-26T18:52:29.572Z,21.43
2019-02-26T18:55:03.128Z,19.03
2019-02-26T18:57:36.603Z,19.67
2019-02-26T19:00:25.677Z,19.87
2019-02-26T19:02:57.154Z,20.73
2019-02-26T19:05:30.613Z,21.00
2019-02-26T19:08:05.820Z,19.17
2019-02-26T19:10:39.553Z,19.70
2019-02-26T19:13:13.067Z,17.33
2019-02-26T19:15:47.926Z,17.10
2019-02-26T19:18:21.706Z,18.03
2019-02-26T19:20:55.196Z,18.10
2019-02-26T19:23:31.476Z,19.00
2019-02-26T19:26:03.906Z,16.93
